Maunawili — WGEB — position and weather

sailwx.info

Track history (hours):
 
Tides and Currents Weather Stations Pressure Air Temp Water Temp Dewpoint Dewpoint Depression Visibility Wind Speed Wind Dir Waves Ship Positions

Maunawili

Owner: Matson Navigation Company, Tacoma, WA. More information available from US FCC via Universal Licensing System and Coast Guard Vessel Documentation Center.

Last reported at 2017-Nov-23 19:00 UTC. Time now 2017-Nov-23 22:13 UTC.
Position N 30°29' W 128°35'.

Length 217 m; draft 11.3 m.

Type: Cargo ship. MMSI: 367438000.

Date/timePositionNaut miles runAvg speedWind from/ knotsBaromVisibWave heightAir tempDewpointWater temp
2017-Nov-23 19:00N 30°29' W 128°35'2626.3
2017-Nov-23 18:00N 30°36' W 128°06'3 9.8 070 / 91023.010.8 19.416.819.2
2017-Nov-23 17:42N 30°38' W 128°04'15622.2
2017-Nov-23 10:42N 31°27' W 125°11'622.3
2017-Nov-23 10:25N 31°29' W 125°04'1022.5
2017-Nov-23 09:58N 31°32' W 124°53'1123.4
2017-Nov-23 09:30N 31°36' W 124°41'1922.5
2017-Nov-23 08:40N 31°42' W 124°20'421.9
2017-Nov-23 08:29N 31°43' W 124°15'1020.8
2017-Nov-23 07:59N 31°46' W 124°04'1319.1
2017-Nov-23 07:19N 31°50' W 123°50'619.1
2017-Nov-23 07:00N 31°52' W 123°43'1319.4
2017-Nov-23 06:22N 31°56' W 123°29'719.7
2017-Nov-23 06:00N 31°58' W 123°21'5315.0
2017-Nov-23 06:00N 31°54' W 123°18'1020.5 350 / 191020.510.8 17.816.018.2
2017-Nov-23 05:29N 32°02' W 123°10'1019.8
2017-Nov-23 04:58N 32°05' W 122°58'1119.8
2017-Nov-23 04:25N 32°09' W 122°46'1019.7
2017-Nov-23 03:54N 32°12' W 122°35'819.4
2017-Nov-23 03:30N 32°14' W 122°26'1019.3
2017-Nov-23 02:58N 32°18' W 122°15'919.0
2017-Nov-23 02:30N 32°21' W 122°05'1019.0
2017-Nov-23 02:00N 32°24' W 121°54'919.0
2017-Nov-23 01:31N 32°27' W 121°44'1119.0
2017-Nov-23 00:55N 32°31' W 121°31'2518.8
2017-Nov-22 23:34N 32°39' W 121°03'118.6
2017-Nov-22 23:30N 32°39' W 121°01'1418.6
2017-Nov-22 22:45N 32°44' W 120°46'919.0
2017-Nov-22 22:15N 32°47' W 120°35'519.3
2017-Nov-22 22:00N 32°49' W 120°29'2219.1
2017-Nov-22 20:51N 32°56' W 120°05'718.9
2017-Nov-22 20:30N 32°58' W 119°57'1018.8
2017-Nov-22 20:00N 33°01' W 119°47'  
2017-Nov-19 21:48N 33°46' W 118°13'0 0.0
2017-Nov-19 19:54N 33°46' W 118°13'0 0.0
2017-Nov-19 18:55N 33°46' W 118°13'1 1.5
2017-Nov-19 17:54N 33°45' W 118°13'5 7.4
2017-Nov-19 17:13N 33°40' W 118°12'2 7.7
2017-Nov-19 16:59N 33°38' W 118°14'4 9.4
2017-Nov-19 16:30N 33°36' W 118°19'611.2
2017-Nov-19 16:00N 33°36' W 118°25'611.4
2017-Nov-19 15:30N 33°36' W 118°32'5 9.4
2017-Nov-19 15:00N 33°36' W 118°38'611.7
2017-Nov-19 14:30N 33°36' W 118°45'611.7
2017-Nov-19 13:59N 33°37' W 118°52'611.5
2017-Nov-19 13:29N 33°37' W 118°59'611.5
2017-Nov-19 12:59N 33°38' W 119°06'714.0
2017-Nov-19 12:30N 33°38' W 119°14'919.5
2017-Nov-19 12:00N 33°39' W 119°25'1019.4
2017-Nov-19 11:30N 33°40' W 119°37'1019.6
2017-Nov-19 11:00N 33°41' W 119°49'1019.8
2017-Nov-19 10:30N 33°42' W 120°01'1019.9
2017-Nov-19 09:59N 33°43' W 120°13'919.3
2017-Nov-19 09:30N 33°43' W 120°24'1019.5
2017-Nov-19 08:59N 33°44' W 120°36'919.6
2017-Nov-19 08:30N 33°45' W 120°48'1019.7
2017-Nov-19 08:00N 33°46' W 120°60'1019.5
2017-Nov-19 07:30N 33°47' W 121°11'1019.9
2017-Nov-19 07:00N 33°47' W 121°23'1020.0
2017-Nov-19 06:30N 33°48' W 121°35'1019.9
2017-Nov-19 06:00N 33°49' W 121°47'1120.1
2017-Nov-19 05:27N 33°50' W 122°01'920.1
2017-Nov-19 05:00N 33°50' W 122°11'1019.8
2017-Nov-19 04:29N 33°51' W 122°24'919.8
2017-Nov-19 04:00N 33°52' W 122°35'1520.0
2017-Nov-19 03:16N 33°53' W 122°53'1119.8
2017-Nov-19 02:43N 33°54' W 123°06'419.5
2017-Nov-19 02:30N 33°54' W 123°11'1019.9
2017-Nov-19 02:00N 33°55' W 123°23'3119.7
2017-Nov-19 00:27N 33°57' W 123°59'6718.5
2017-Nov-18 20:52N 34°16' W 125°16'820.2
2017-Nov-18 20:27N 34°21' W 125°25'1021.9
2017-Nov-18 20:00N 34°27' W 125°34'  
Track history (hours):
 
Tides and Currents Weather Stations Pressure Air Temp Water Temp Dewpoint Dewpoint Depression Visibility Wind Speed Wind Dir Waves Ship Positions

Maunawili

Owner: Matson Navigation Company, Tacoma, WA. More information available from US FCC via Universal Licensing System and Coast Guard Vessel Documentation Center.

Last reported at 2017-Nov-23 19:00 UTC. Time now 2017-Nov-23 22:13 UTC.
Position N 30°29' W 128°35'.

Length 217 m; draft 11.3 m.

Type: Cargo ship. MMSI: 367438000.

Date/timePositionNaut miles runAvg speedWind from/ knotsBaromVisibWave heightAir tempDewpointWater temp
2017-Nov-23 19:00N 30°29' W 128°35'2626.3
2017-Nov-23 18:00N 30°36' W 128°06'3 9.8 070 / 91023.010.8 19.416.819.2
2017-Nov-23 17:42N 30°38' W 128°04'15622.2
2017-Nov-23 10:42N 31°27' W 125°11'622.3
2017-Nov-23 10:25N 31°29' W 125°04'1022.5
2017-Nov-23 09:58N 31°32' W 124°53'1123.4
2017-Nov-23 09:30N 31°36' W 124°41'1922.5
2017-Nov-23 08:40N 31°42' W 124°20'421.9
2017-Nov-23 08:29N 31°43' W 124°15'1020.8
2017-Nov-23 07:59N 31°46' W 124°04'1319.1
2017-Nov-23 07:19N 31°50' W 123°50'619.1
2017-Nov-23 07:00N 31°52' W 123°43'1319.4
2017-Nov-23 06:22N 31°56' W 123°29'719.7
2017-Nov-23 06:00N 31°58' W 123°21'5315.0
2017-Nov-23 06:00N 31°54' W 123°18'1020.5 350 / 191020.510.8 17.816.018.2
2017-Nov-23 05:29N 32°02' W 123°10'1019.8
2017-Nov-23 04:58N 32°05' W 122°58'1119.8
2017-Nov-23 04:25N 32°09' W 122°46'1019.7
2017-Nov-23 03:54N 32°12' W 122°35'819.4
2017-Nov-23 03:30N 32°14' W 122°26'1019.3
2017-Nov-23 02:58N 32°18' W 122°15'919.0
2017-Nov-23 02:30N 32°21' W 122°05'1019.0
2017-Nov-23 02:00N 32°24' W 121°54'919.0
2017-Nov-23 01:31N 32°27' W 121°44'1119.0
2017-Nov-23 00:55N 32°31' W 121°31'2518.8
2017-Nov-22 23:34N 32°39' W 121°03'118.6
2017-Nov-22 23:30N 32°39' W 121°01'1418.6
2017-Nov-22 22:45N 32°44' W 120°46'919.0
2017-Nov-22 22:15N 32°47' W 120°35'519.3
2017-Nov-22 22:00N 32°49' W 120°29'2219.1
2017-Nov-22 20:51N 32°56' W 120°05'718.9
2017-Nov-22 20:30N 32°58' W 119°57'1018.8
2017-Nov-22 20:00N 33°01' W 119°47'  
2017-Nov-19 21:48N 33°46' W 118°13'0 0.0
2017-Nov-19 19:54N 33°46' W 118°13'0 0.0
2017-Nov-19 18:55N 33°46' W 118°13'1 1.5
2017-Nov-19 17:54N 33°45' W 118°13'5 7.4
2017-Nov-19 17:13N 33°40' W 118°12'2 7.7
2017-Nov-19 16:59N 33°38' W 118°14'4 9.4
2017-Nov-19 16:30N 33°36' W 118°19'611.2
2017-Nov-19 16:00N 33°36' W 118°25'611.4
2017-Nov-19 15:30N 33°36' W 118°32'5 9.4
2017-Nov-19 15:00N 33°36' W 118°38'611.7
2017-Nov-19 14:30N 33°36' W 118°45'611.7
2017-Nov-19 13:59N 33°37' W 118°52'611.5
2017-Nov-19 13:29N 33°37' W 118°59'611.5
2017-Nov-19 12:59N 33°38' W 119°06'714.0
2017-Nov-19 12:30N 33°38' W 119°14'919.5
2017-Nov-19 12:00N 33°39' W 119°25'1019.4
2017-Nov-19 11:30N 33°40' W 119°37'1019.6
2017-Nov-19 11:00N 33°41' W 119°49'1019.8
2017-Nov-19 10:30N 33°42' W 120°01'1019.9
2017-Nov-19 09:59N 33°43' W 120°13'919.3
2017-Nov-19 09:30N 33°43' W 120°24'1019.5
2017-Nov-19 08:59N 33°44' W 120°36'919.6
2017-Nov-19 08:30N 33°45' W 120°48'1019.7
2017-Nov-19 08:00N 33°46' W 120°60'1019.5
2017-Nov-19 07:30N 33°47' W 121°11'1019.9
2017-Nov-19 07:00N 33°47' W 121°23'1020.0
2017-Nov-19 06:30N 33°48' W 121°35'1019.9
2017-Nov-19 06:00N 33°49' W 121°47'1120.1
2017-Nov-19 05:27N 33°50' W 122°01'920.1
2017-Nov-19 05:00N 33°50' W 122°11'1019.8
2017-Nov-19 04:29N 33°51' W 122°24'919.8
2017-Nov-19 04:00N 33°52' W 122°35'1520.0
2017-Nov-19 03:16N 33°53' W 122°53'1119.8
2017-Nov-19 02:43N 33°54' W 123°06'419.5
2017-Nov-19 02:30N 33°54' W 123°11'1019.9
2017-Nov-19 02:00N 33°55' W 123°23'3119.7
2017-Nov-19 00:27N 33°57' W 123°59'6718.5
2017-Nov-18 20:52N 34°16' W 125°16'820.2
2017-Nov-18 20:27N 34°21' W 125°25'1021.9
2017-Nov-18 20:00N 34°27' W 125°34'  

Dump ship's entire track history